createdAt,value
2023-01-29T00:03:16.568Z,101387.97
2023-01-29T00:08:18.170Z,101412.63
2023-01-29T00:13:19.868Z,101403.81
2023-01-29T00:18:21.714Z,101398.69
2023-01-29T00:23:23.981Z,101388.88
2023-01-29T00:28:25.612Z,101375.44
2023-01-29T00:33:31.214Z,101381.94
2023-01-29T00:38:33.944Z,101400.91
2023-01-29T00:43:55.049Z,101407.00
2023-01-29T00:48:56.621Z,101393.56
2023-01-29T00:53:58.427Z,101384.75
2023-01-29T00:59:00.187Z,101392.13
2023-01-29T01:04:01.848Z,101394.25
2023-01-29T01:09:21.972Z,101389.94
2023-01-29T01:14:36.195Z,101387.19
2023-01-29T01:19:41.592Z,101383.78
2023-01-29T01:24:43.387Z,101392.84
2023-01-29T01:29:46.507Z,101407.28
2023-01-29T01:34:48.124Z,101400.31
2023-01-29T01:39:50.560Z,101407.56
2023-01-29T01:45:06.404Z,101416.22
2023-01-29T01:50:23.898Z,101413.25
2023-01-29T01:55:30.166Z,101413.56
2023-01-29T02:00:35.484Z,101395.84
2023-01-29T02:05:56.797Z,101380.00
2023-01-29T02:10:58.861Z,101400.81
2023-01-29T02:16:00.550Z,101390.41
2023-01-29T02:21:29.308Z,101408.41
2023-01-29T02:26:54.158Z,101418.31
2023-01-29T02:32:04.940Z,101421.13
2023-01-29T02:37:11.579Z,101406.81
2023-01-29T02:42:25.419Z,101409.38
2023-01-29T02:47:45.489Z,101402.41
2023-01-29T02:52:50.800Z,101399.59
2023-01-29T02:57:57.955Z,101408.53
2023-01-29T03:03:12.509Z,101402.28
2023-01-29T03:08:19.574Z,101395.91
2023-01-29T03:13:23.713Z,101390.69
2023-01-29T03:18:30.573Z,101387.13
2023-01-29T03:23:55.393Z,101396.72
2023-01-29T03:29:17.777Z,101396.72
2023-01-29T03:34:35.209Z,101403.78
2023-01-29T03:39:37.259Z,101391.31
2023-01-29T03:44:48.921Z,101398.53
2023-01-29T03:50:09.571Z,101404.06
2023-01-29T03:55:26.879Z,101404.78
2023-01-29T04:00:34.712Z,101414.53
2023-01-29T04:06:09.849Z,101419.06
2023-01-29T04:11:20.729Z,101405.28
2023-01-29T04:16:35.316Z,101400.28
2023-01-29T04:22:05.341Z,101412.66
2023-01-29T04:27:35.094Z,101413.94
2023-01-29T04:32:57.375Z,101424.22
2023-01-29T04:38:12.826Z,101405.75
2023-01-29T04:43:35.269Z,101407.84
2023-01-29T04:48:46.004Z,101415.91
2023-01-29T04:53:57.927Z,101404.69
2023-01-29T04:59:07.934Z,101411.56
2023-01-29T05:04:13.705Z,101400.34
2023-01-29T05:09:17.518Z,101410.09
2023-01-29T05:14:27.429Z,101421.47
2023-01-29T05:19:29.081Z,101422.31
2023-01-29T05:24:30.880Z,101423.88
2023-01-29T05:29:32.612Z,101389.69
2023-01-29T05:34:34.405Z,101375.09
2023-01-29T05:39:36.056Z,101379.88
2023-01-29T05:44:37.664Z,101393.13
2023-01-29T05:49:41.534Z,101380.91
2023-01-29T05:54:43.176Z,101418.56
2023-01-29T05:59:44.799Z,101412.91
2023-01-29T06:04:46.452Z,101425.53
2023-01-29T06:09:48.118Z,101436.75
2023-01-29T06:14:49.943Z,101434.66
2023-01-29T06:19:53.517Z,101438.22
2023-01-29T06:24:55.108Z,101445.78
2023-01-29T06:29:56.756Z,101443.03
2023-01-29T06:34:58.710Z,101428.19
2023-01-29T06:40:00.270Z,101414.03
2023-01-29T06:45:01.861Z,101420.44
2023-01-29T06:50:04.049Z,101433.50
2023-01-29T06:55:12.164Z,101417.34
2023-01-29T07:00:15.465Z,101412.25
2023-01-29T07:05:17.621Z,101421.88
2023-01-29T07:10:19.394Z,101426.53
2023-01-29T07:15:21.436Z,101427.28
2023-01-29T07:20:25.010Z,101444.13
2023-01-29T07:25:30.469Z,101452.47
2023-01-29T07:30:32.391Z,101453.09
2023-01-29T07:35:42.704Z,101459.13
2023-01-29T07:40:44.265Z,101451.59
2023-01-29T07:45:45.909Z,101446.75
2023-01-29T07:50:58.438Z,101450.03
2023-01-29T07:56:00.068Z,101452.53
2023-01-29T08:01:06.452Z,101458.16
2023-01-29T08:06:11.561Z,101458.88
2023-01-29T08:11:13.143Z,101462.56
2023-01-29T08:16:17.582Z,101434.94
2023-01-29T08:21:19.176Z,101453.13
2023-01-29T08:26:20.978Z,101449.31
2023-01-29T08:31:23.605Z,101459.34
2023-01-29T08:36:25.249Z,101437.63
2023-01-29T08:41:26.903Z,101430.06
2023-01-29T08:46:28.687Z,101435.78
2023-01-29T08:51:30.338Z,101440.25
2023-01-29T08:56:31.971Z,101430.66
2023-01-29T09:01:38.083Z,101414.97
2023-01-29T09:06:39.729Z,101413.06
2023-01-29T09:11:41.359Z,101430.41
2023-01-29T09:16:43.180Z,101428.72
2023-01-29T09:21:44.804Z,101418.53
2023-01-29T09:26:46.459Z,101402.38
2023-01-29T09:31:53.717Z,101401.28
2023-01-29T09:36:55.397Z,101399.09
2023-01-29T09:42:13.175Z,101393.22
2023-01-29T09:47:18.378Z,101366.56
2023-01-29T09:52:30.266Z,101334.16
2023-01-29T09:57:45.463Z,101350.63
2023-01-29T10:03:08.192Z,101333.22
2023-01-29T10:08:26.857Z,101284.78
2023-01-29T10:13:44.931Z,101316.06
2023-01-29T10:19:00.987Z,101344.28
2023-01-29T10:24:26.001Z,101362.25
2023-01-29T10:29:29.864Z,101314.84
2023-01-29T10:34:56.300Z,101303.31
2023-01-29T10:40:00.046Z,101286.63
2023-01-29T10:45:16.887Z,101248.63
2023-01-29T10:51:11.908Z,101238.72
2023-01-29T10:56:36.180Z,101258.91
2023-01-29T11:01:37.753Z,101249.25
2023-01-29T11:06:39.368Z,101235.88
2023-01-29T11:11:45.122Z,101256.50
2023-01-29T11:16:48.490Z,101233.28
2023-01-29T11:21:58.691Z,101236.06
2023-01-29T11:27:00.529Z,101234.03
2023-01-29T11:32:06.655Z,101169.34
2023-01-29T11:37:17.005Z,101167.09
2023-01-29T11:42:23.183Z,101177.31
2023-01-29T11:47:30.464Z,101144.59
2023-01-29T11:52:37.658Z,101160.06
2023-01-29T11:57:52.785Z,101131.84
2023-01-29T12:02:54.318Z,101109.00
2023-01-29T12:08:02.119Z,101122.47
2023-01-29T12:13:06.607Z,101121.41
2023-01-29T12:18:36.306Z,101137.59
2023-01-29T12:23:56.598Z,101086.38
2023-01-29T12:29:23.375Z,101099.47
2023-01-29T12:34:36.019Z,101100.06
2023-01-29T12:39:37.666Z,101056.25
2023-01-29T12:45:01.423Z,101045.53
2023-01-29T12:50:14.729Z,101041.13
2023-01-29T12:55:22.132Z,101020.31
2023-01-29T13:00:32.215Z,100990.19
2023-01-29T13:05:44.318Z,101016.94
2023-01-29T13:10:50.921Z,101006.00
2023-01-29T13:15:53.512Z,100994.84
2023-01-29T13:20:55.835Z,100995.72
2023-01-29T13:25:57.645Z,100955.75
2023-01-29T13:31:28.962Z,100980.50
2023-01-29T13:36:31.436Z,100969.81
2023-01-29T13:41:42.565Z,100957.44
2023-01-29T13:46:50.507Z,100970.16
2023-01-29T13:51:52.197Z,100963.38
2023-01-29T13:57:01.715Z,100930.34
2023-01-29T14:02:04.520Z,100917.00
2023-01-29T14:07:40.148Z,100949.97
2023-01-29T14:12:42.660Z,100945.72
2023-01-29T14:18:18.766Z,100948.41
2023-01-29T14:23:46.654Z,100919.94
2023-01-29T14:29:07.788Z,100943.00
2023-01-29T14:34:18.252Z,100944.66
2023-01-29T14:39:35.422Z,100939.88
2023-01-29T14:45:11.257Z,100922.88
2023-01-29T14:50:18.955Z,100933.25
2023-01-29T14:55:41.607Z,100932.59
2023-01-29T15:00:46.387Z,100952.56
2023-01-29T15:05:49.381Z,100962.75
2023-01-29T15:11:35.034Z,100968.03
2023-01-29T15:16:50.809Z,100978.22
2023-01-29T15:22:11.459Z,100989.34
2023-01-29T15:27:20.188Z,101000.75
2023-01-29T15:32:28.700Z,101012.78
2023-01-29T15:37:35.217Z,101013.72
2023-01-29T15:42:48.704Z,101018.47
2023-01-29T15:47:50.961Z,101015.41
2023-01-29T15:52:53.651Z,101013.91
2023-01-29T15:58:01.124Z,101023.34
2023-01-29T16:03:14.791Z,101027.63
2023-01-29T16:08:16.915Z,101041.59
2023-01-29T16:13:39.534Z,101059.06
2023-01-29T16:18:57.806Z,101066.59
2023-01-29T16:24:10.120Z,101082.19
2023-01-29T16:29:15.089Z,101080.34
2023-01-29T16:34:27.830Z,101087.84
2023-01-29T16:39:32.612Z,101105.81
2023-01-29T16:44:37.587Z,101105.94
2023-01-29T16:49:39.117Z,101102.94
2023-01-29T16:54:43.479Z,101121.97
2023-01-29T16:59:46.250Z,101131.25
2023-01-29T17:04:48.101Z,101130.25
2023-01-29T17:09:58.833Z,101135.69
2023-01-29T17:15:04.510Z,101138.31
2023-01-29T17:20:16.867Z,101133.31
2023-01-29T17:25:19.132Z,101135.72
2023-01-29T17:30:23.739Z,101147.84
2023-01-29T17:35:25.397Z,101168.72
2023-01-29T17:40:45.590Z,101177.50
2023-01-29T17:45:47.611Z,101173.38
2023-01-29T17:50:53.377Z,101176.19
2023-01-29T17:55:54.944Z,101182.22
2023-01-29T18:00:56.615Z,101197.34
2023-01-29T18:05:58.289Z,101205.69
2023-01-29T18:11:00.480Z,101206.03
2023-01-29T18:16:02.442Z,101201.91
2023-01-29T18:21:07.993Z,101205.59
2023-01-29T18:26:15.338Z,101208.38
2023-01-29T18:31:17.019Z,101205.81
2023-01-29T18:36:18.619Z,101214.84
2023-01-29T18:41:20.269Z,101216.94
2023-01-29T18:46:24.306Z,101235.13
2023-01-29T18:51:26.021Z,101238.06
2023-01-29T18:56:27.778Z,101241.97
2023-01-29T19:01:30.300Z,101254.66
2023-01-29T19:06:34.422Z,101253.81
2023-01-29T19:11:41.960Z,101258.56
2023-01-29T19:16:44.173Z,101264.78
2023-01-29T19:21:45.860Z,101263.09
2023-01-29T19:26:48.507Z,101262.09
2023-01-29T19:31:50.183Z,101268.94
2023-01-29T19:36:51.875Z,101262.47
2023-01-29T19:41:53.413Z,101251.47
2023-01-29T19:46:55.059Z,101254.88
2023-01-29T19:51:58.940Z,101241.00
2023-01-29T19:57:00.565Z,101242.97
2023-01-29T20:02:02.392Z,101241.25
2023-01-29T20:07:04.055Z,101236.16
2023-01-29T20:12:05.719Z,101239.78
2023-01-29T20:17:12.172Z,101230.03
2023-01-29T20:22:13.882Z,101229.06
2023-01-29T20:27:15.477Z,101233.06
2023-01-29T20:32:18.717Z,101236.50
2023-01-29T20:37:20.458Z,101230.38
2023-01-29T20:42:22.280Z,101234.25
2023-01-29T20:47:24.022Z,101232.28
2023-01-29T20:52:25.699Z,101224.09
2023-01-29T20:57:27.844Z,101223.25
2023-01-29T21:02:29.568Z,101219.72
2023-01-29T21:07:36.690Z,101220.81
2023-01-29T21:12:38.532Z,101232.91
2023-01-29T21:17:40.342Z,101235.13
2023-01-29T21:22:44.093Z,101221.50
2023-01-29T21:27:45.898Z,101228.56
2023-01-29T21:32:47.545Z,101222.56
2023-01-29T21:37:49.189Z,101220.88
2023-01-29T21:43:10.185Z,101220.88
2023-01-29T21:48:11.861Z,101225.41
2023-01-29T21:53:18.475Z,101215.91
2023-01-29T21:58:20.746Z,101212.50
2023-01-29T22:03:22.667Z,101218.59
2023-01-29T22:08:24.387Z,101219.03
2023-01-29T22:13:26.297Z,101212.44
2023-01-29T22:18:28.049Z,101219.03
2023-01-29T22:23:31.009Z,101198.88
2023-01-29T22:28:33.085Z,101184.09
2023-01-29T22:33:34.686Z,101178.56
2023-01-29T22:38:36.520Z,101166.47
2023-01-29T22:43:38.538Z,101165.13
2023-01-29T22:48:40.280Z,101141.28
2023-01-29T22:53:43.307Z,101132.13
2023-01-29T22:58:45.054Z,101110.03
2023-01-29T23:03:47.310Z,101120.19
2023-01-29T23:08:49.542Z,101128.97
2023-01-29T23:13:53.726Z,101113.69
2023-01-29T23:18:56.375Z,101119.22
2023-01-29T23:24:01.340Z,101108.41
2023-01-29T23:29:03.974Z,101106.47
2023-01-29T23:34:05.639Z,101107.13
2023-01-29T23:39:07.809Z,101100.91
2023-01-29T23:44:09.817Z,101085.53
2023-01-29T23:49:11.513Z,101070.53
2023-01-29T23:54:13.375Z,101058.19
2023-01-29T23:59:15.519Z,101063.84
